Terminal Aerodrome Forecast
Issued by NWS Jackson, MS

Current Version | Previous Version | Text Only | Print | Product List | Glossary On
Versions: 1 2 3 4 5 6 7 8 9 10 11 12 13 14 15 16
000
FTUS44 KJAN 232333
TAFHBG
TAF
KHBG 232333Z 2400/2424 15005KT P6SM VCTS SCT040CB
     FM240200 00000KT 6SM BR BKN250
     FM241000 00000KT 4SM BR BKN005
     FM241400 15003KT P6SM SCT030
     FM241800 15006KT P6SM VCTS SCT050CB=

USA.gov is the U.S. government's official web portal to all federal, state and local government web resources and services.